Norton, MA

4:41 PM EDT on July 31, 2015 (GMT -0400)
Wheaton College | | Change Station
CLOSE
Current Station
Personal Weather Station
Location: Norton, MA
Elevation: 80 ft
Nearby Weather Stations

Elev 80 ft 41.97 °N, 71.18 °W | Updated 25 minutes ago

Clear
Clear
86.4 °F
Feels Like 87 °F
N
5.0
Wind Variable Wind from NW
Gusts 19.0 mph

Today
High -- | Low -- °F
--% Chance of Precip.
Yesterday
High -- | Low -- °F
Precip. -- in
5:37 AM 8:04 PM
Full, 100% visible
Pressure 29.75 in
Visibility 10.0 miles
Clouds Clear
Heat Index 87 °F
Dew Point 63 °F
Humidity 46%
Rainfall 0.00 in
Snow Depth Not available.
UV 6 out of 12
Pollen 5.00 out of 12
Air Quality Not available.
Flu Activity Not available.
METAR KTAN 311952Z AUTO 25008KT 210V280 10SM CLR 31/14 A2975 RMK AO2 SLP074 T03110139

More Conditions Fewer Conditions

Pressure 29.75 in
Visibility 10.0 miles
Clouds Clear
Heat Index 87 °F
Dew Point 63 °F
Humidity 46%
Rainfall 0.00 in
Snow Depth Not available.
UV 6 out of 12
Pollen 5.00 out of 12
Air Quality Not available.
Flu Activity Not available.
METAR KTAN 311952Z AUTO 25008KT 210V280 10SM CLR 31/14 A2975 RMK AO2 SLP074 T03110139

More Conditions Fewer Conditions

10-Day Weather Forecast

×

Almanac

Astronomy

Jul. 31, 2015 Rise Set
Actual Time
Civil Twilight
Nautical Twilight
Astronomical Twilight
Moon
Length of Visible Light
Length of Day
Tomorrow will be .
, % of the Moon is Illuminated

Today's Extremes

State Highs State Lows

Community

WunderPhotos

Upload Photos

1,842,737 photos uploaded!

WunderBlogs® & News

Nearby

Air Quality

  Air Quality AQ Index Pollutant
Not available.

Snow Depth

Station Depth Elevation

Earthquake Activity

City Distance Mag. Time & Date
Minimum magnitude displayed is 2.5.

Coastal Water Temperatures

Place Temperature

Stations

Nearby Weather Stations

Station Location Temp. Windchill Dew Point Humidity Wind Precip. Elev Updated Type